createdAt,value
2023-04-25T00:00:40.811Z,0.89
2023-04-25T00:01:40.810Z,0.84
2023-04-25T00:02:40.889Z,0.84
2023-04-25T00:03:40.933Z,0.96
2023-04-25T00:04:40.980Z,0.75
2023-04-25T00:05:40.832Z,0.89
2023-04-25T00:06:40.746Z,0.95
2023-04-25T00:07:40.743Z,0.89
2023-04-25T00:08:40.765Z,0.80
2023-04-25T00:09:40.711Z,0.84
2023-04-25T00:10:40.708Z,0.88
2023-04-25T00:11:40.692Z,1.00
2023-04-25T00:12:40.689Z,0.92
2023-04-25T00:13:40.671Z,1.00
2023-04-25T00:14:40.670Z,0.93
2023-04-25T00:15:40.695Z,0.96
2023-04-25T00:16:40.645Z,0.93
2023-04-25T00:17:40.674Z,0.99
2023-04-25T00:18:40.611Z,0.95
2023-04-25T00:19:40.617Z,0.90
2023-04-25T00:20:40.595Z,1.10
2023-04-25T00:21:40.585Z,1.10
2023-04-25T00:22:40.584Z,1.06
2023-04-25T00:23:40.569Z,1.13
2023-04-25T00:24:40.572Z,1.14
2023-04-25T00:25:40.541Z,1.13
2023-04-25T00:26:40.555Z,1.17
2023-04-25T00:27:40.522Z,1.11
2023-04-25T00:28:40.504Z,1.17
2023-04-25T00:29:40.500Z,1.18
2023-04-25T00:30:40.487Z,1.21
2023-04-25T00:31:40.539Z,1.26
2023-04-25T00:32:40.566Z,1.21
2023-04-25T00:33:40.462Z,1.29
2023-04-25T00:34:40.451Z,1.26
2023-04-25T00:35:40.434Z,1.47
2023-04-25T00:36:40.430Z,1.38
2023-04-25T00:37:40.411Z,1.25
2023-04-25T00:38:40.426Z,1.39
2023-04-25T00:39:40.388Z,1.52
2023-04-25T00:40:40.400Z,1.35
2023-04-25T00:41:40.396Z,1.44
2023-04-25T00:42:40.362Z,1.42
2023-04-25T00:43:40.344Z,1.49
2023-04-25T00:44:40.341Z,1.50
2023-04-25T00:45:40.325Z,1.53
2023-04-25T00:46:40.362Z,1.64
2023-04-25T00:47:40.374Z,1.63
2023-04-25T00:48:40.299Z,1.49
2023-04-25T00:49:40.290Z,1.42
2023-04-25T00:50:40.278Z,1.52
2023-04-25T00:51:40.269Z,1.50
2023-04-25T00:52:40.259Z,1.68
2023-04-25T00:53:40.256Z,1.60
2023-04-25T00:54:40.247Z,1.61
2023-04-25T00:55:40.223Z,1.70
2023-04-25T00:56:40.243Z,1.70
2023-04-25T00:57:40.264Z,1.72
2023-04-25T00:58:40.189Z,1.70
2023-04-25T00:59:40.190Z,1.72
2023-04-25T01:00:40.179Z,1.67
2023-04-25T01:01:40.151Z,1.79
2023-04-25T01:02:40.378Z,1.67
2023-04-25T01:03:40.412Z,1.71
2023-04-25T01:04:40.134Z,1.82
2023-04-25T01:05:40.141Z,1.72
2023-04-25T01:06:40.103Z,1.83
2023-04-25T01:07:40.088Z,1.79
2023-04-25T01:08:40.093Z,2.00
2023-04-25T01:09:40.081Z,1.74
2023-04-25T01:10:40.065Z,1.82
2023-04-25T01:11:40.060Z,1.77
2023-04-25T01:12:40.068Z,1.83
2023-04-25T01:13:40.025Z,2.00
2023-04-25T01:14:40.068Z,1.95
2023-04-25T01:15:40.017Z,1.89
2023-04-25T01:16:40.104Z,1.86
2023-04-25T01:17:40.025Z,1.79
2023-04-25T01:18:39.983Z,1.81
2023-04-25T01:19:39.965Z,1.83
2023-04-25T01:20:39.980Z,1.88
2023-04-25T01:21:39.943Z,1.71
2023-04-25T01:22:39.940Z,1.79
2023-04-25T01:23:39.934Z,1.74
2023-04-25T01:24:39.913Z,1.77
2023-04-25T01:25:39.898Z,1.67
2023-04-25T01:26:39.888Z,1.72
2023-04-25T01:27:39.879Z,1.83
2023-04-25T01:28:39.890Z,1.72
2023-04-25T01:29:39.860Z,1.83
2023-04-25T01:30:39.841Z,1.83
2023-04-25T01:31:39.872Z,1.82
2023-04-25T01:32:39.872Z,1.98
2023-04-25T01:33:39.821Z,1.86
2023-04-25T01:34:39.810Z,1.89
2023-04-25T01:35:39.795Z,1.98
2023-04-25T01:36:39.784Z,1.83
2023-04-25T01:37:39.784Z,1.64
2023-04-25T01:38:39.767Z,1.57
2023-04-25T01:39:39.758Z,1.68
2023-04-25T01:40:39.738Z,1.65
2023-04-25T01:41:39.745Z,1.70
2023-04-25T01:42:39.717Z,1.75
2023-04-25T01:43:39.709Z,1.81
2023-04-25T01:44:39.717Z,1.67
2023-04-25T01:45:39.717Z,1.64
2023-04-25T01:46:39.744Z,1.65
2023-04-25T01:47:39.721Z,1.72
2023-04-25T01:48:39.667Z,1.68
2023-04-25T01:49:39.641Z,1.82
2023-04-25T01:50:39.635Z,1.72
2023-04-25T01:51:39.621Z,1.85
2023-04-25T01:52:39.620Z,1.79
2023-04-25T01:53:39.610Z,1.83
2023-04-25T01:54:39.594Z,1.75
2023-04-25T01:55:39.575Z,1.98
2023-04-25T01:56:39.573Z,1.93
2023-04-25T01:57:39.560Z,1.89
2023-04-25T01:58:39.542Z,1.88
2023-04-25T01:59:39.554Z,1.64
2023-04-25T02:00:39.551Z,1.75
2023-04-25T02:01:39.544Z,1.74
2023-04-25T02:02:39.752Z,1.72
2023-04-25T02:03:39.831Z,1.67
2023-04-25T02:04:39.667Z,1.70
2023-04-25T02:05:39.476Z,1.67
2023-04-25T02:06:39.471Z,1.83
2023-04-25T02:07:39.452Z,1.81
2023-04-25T02:08:39.444Z,1.90
2023-04-25T02:09:39.438Z,1.83
2023-04-25T02:10:39.417Z,1.92
2023-04-25T02:11:39.404Z,1.83
2023-04-25T02:12:39.397Z,1.83
2023-04-25T02:13:39.386Z,1.88
2023-04-25T02:14:39.392Z,1.82
2023-04-25T02:15:39.374Z,1.82
2023-04-25T02:16:39.452Z,1.85
2023-04-25T02:17:39.363Z,1.86
2023-04-25T02:18:39.338Z,1.85
2023-04-25T02:19:39.320Z,1.83
2023-04-25T02:20:39.326Z,1.95
2023-04-25T02:21:39.298Z,1.75
2023-04-25T02:22:39.291Z,1.86
2023-04-25T02:23:39.285Z,1.83
2023-04-25T02:24:39.268Z,1.75
2023-04-25T02:25:39.264Z,1.85
2023-04-25T02:26:39.316Z,1.75
2023-04-25T02:27:39.236Z,1.83
2023-04-25T02:28:39.234Z,1.79
2023-04-25T02:29:39.229Z,1.83
2023-04-25T02:30:39.211Z,1.79
2023-04-25T02:31:39.216Z,1.70
2023-04-25T02:32:39.271Z,1.74
2023-04-25T02:33:39.173Z,1.67
2023-04-25T02:34:39.163Z,1.65
2023-04-25T02:35:39.162Z,1.65
2023-04-25T02:36:39.153Z,1.67
2023-04-25T02:37:39.135Z,1.67
2023-04-25T02:38:39.119Z,1.74
2023-04-25T02:39:39.120Z,1.72
2023-04-25T02:40:39.100Z,1.74
2023-04-25T02:41:39.088Z,1.79
2023-04-25T02:42:39.069Z,1.68
2023-04-25T02:43:39.070Z,1.81
2023-04-25T02:44:39.068Z,1.77
2023-04-25T02:45:39.054Z,1.74
2023-04-25T02:46:39.933Z,1.67
2023-04-25T02:47:39.037Z,1.61
2023-04-25T02:48:39.037Z,1.64
2023-04-25T02:49:38.993Z,1.74
2023-04-25T02:50:39.005Z,1.72
2023-04-25T02:51:38.975Z,1.79
2023-04-25T02:52:38.959Z,1.75
2023-04-25T02:53:38.954Z,1.65
2023-04-25T02:54:38.944Z,1.60
2023-04-25T02:55:38.950Z,1.61
2023-04-25T02:56:38.952Z,1.64
2023-04-25T02:57:38.908Z,1.70
2023-04-25T02:58:38.898Z,1.74
2023-04-25T02:59:38.907Z,1.74
2023-04-25T03:00:38.914Z,1.70
2023-04-25T03:01:38.869Z,1.71
2023-04-25T03:02:38.983Z,1.71
2023-04-25T03:03:38.893Z,1.68
2023-04-25T03:04:38.915Z,1.71
2023-04-25T03:05:38.857Z,1.64
2023-04-25T03:06:38.810Z,1.70
2023-04-25T03:07:38.809Z,1.75
2023-04-25T03:08:38.795Z,1.67
2023-04-25T03:09:38.826Z,1.70
2023-04-25T03:10:38.777Z,1.81
2023-04-25T03:11:38.761Z,1.56
2023-04-25T03:12:38.755Z,1.64
2023-04-25T03:13:38.750Z,1.54
2023-04-25T03:14:38.727Z,1.60
2023-04-25T03:15:38.726Z,1.56
2023-04-25T03:16:38.730Z,1.44
2023-04-25T03:17:38.815Z,1.42
2023-04-25T03:18:38.692Z,1.46
2023-04-25T03:19:38.675Z,1.63
2023-04-25T03:20:38.705Z,1.64
2023-04-25T03:21:38.662Z,1.54
2023-04-25T03:22:38.657Z,1.34
2023-04-25T03:23:38.628Z,1.28
2023-04-25T03:24:38.620Z,1.24
2023-04-25T03:25:38.613Z,1.25
2023-04-25T03:26:38.608Z,1.26
2023-04-25T03:27:38.609Z,1.29
2023-04-25T03:28:38.589Z,1.29
2023-04-25T03:29:38.571Z,1.36
2023-04-25T03:30:38.571Z,1.31
2023-04-25T03:31:38.624Z,1.28
2023-04-25T03:32:38.631Z,1.31
2023-04-25T03:33:38.555Z,1.25
2023-04-25T03:34:38.537Z,1.36
2023-04-25T03:35:38.522Z,1.29
2023-04-25T03:36:41.036Z,1.21
2023-04-25T03:37:38.519Z,1.14
2023-04-25T03:38:38.483Z,1.10
2023-04-25T03:39:38.472Z,1.07
2023-04-25T03:40:38.453Z,1.13
2023-04-25T03:41:38.455Z,1.17
2023-04-25T03:42:38.427Z,1.21
2023-04-25T03:43:38.422Z,1.14
2023-04-25T03:44:38.406Z,1.14
2023-04-25T03:45:38.446Z,0.95
2023-04-25T03:46:38.391Z,1.06
2023-04-25T03:47:38.410Z,0.92
2023-04-25T03:48:38.396Z,0.95
2023-04-25T03:49:38.383Z,0.95
2023-04-25T03:50:38.350Z,0.88
2023-04-25T03:51:38.341Z,0.90
2023-04-25T03:52:38.345Z,0.84
2023-04-25T03:53:38.328Z,0.88
2023-04-25T03:54:38.310Z,0.82
2023-04-25T03:55:38.349Z,0.81
2023-04-25T03:56:38.303Z,0.78
2023-04-25T03:57:38.273Z,0.74
2023-04-25T03:58:38.274Z,0.56
2023-04-25T03:59:38.261Z,0.63
2023-04-25T04:00:38.241Z,0.71
2023-04-25T04:01:38.245Z,0.57
2023-04-25T04:02:38.599Z,0.63
2023-04-25T04:03:38.585Z,0.62
2023-04-25T04:04:38.519Z,0.71
2023-04-25T04:05:38.309Z,0.57
2023-04-25T04:06:38.229Z,0.70
2023-04-25T04:07:38.163Z,0.67
2023-04-25T04:08:38.192Z,0.68
2023-04-25T04:09:38.141Z,0.74
2023-04-25T04:10:38.160Z,0.84
2023-04-25T04:11:38.127Z,0.92
2023-04-25T04:12:38.115Z,0.77
2023-04-25T04:13:38.108Z,0.67
2023-04-25T04:14:38.089Z,0.63
2023-04-25T04:15:38.096Z,0.56
2023-04-25T04:16:38.257Z,0.53
2023-04-25T04:17:38.135Z,0.56
2023-04-25T04:18:38.051Z,0.59
2023-04-25T04:19:38.041Z,0.59
2023-04-25T04:20:38.023Z,0.56
2023-04-25T04:21:38.024Z,0.63
2023-04-25T04:22:38.012Z,0.57
2023-04-25T04:23:39.533Z,0.57
2023-04-25T04:24:38.003Z,0.71
2023-04-25T04:25:37.968Z,0.60
2023-04-25T04:26:37.968Z,0.59
2023-04-25T04:27:37.953Z,0.64
2023-04-25T04:28:37.943Z,0.52
2023-04-25T04:29:37.988Z,0.63
2023-04-25T04:30:37.921Z,0.59
2023-04-25T04:31:37.945Z,0.64
2023-04-25T04:32:37.929Z,0.45
2023-04-25T04:33:37.894Z,0.52
2023-04-25T04:34:37.888Z,0.56
2023-04-25T04:35:37.878Z,0.56
2023-04-25T04:36:37.872Z,0.57
2023-04-25T04:37:37.882Z,0.52
2023-04-25T04:38:39.153Z,0.45
2023-04-25T04:39:37.841Z,0.41
2023-04-25T04:40:37.839Z,0.52
2023-04-25T04:41:37.799Z,0.49
2023-04-25T04:42:37.796Z,0.60
2023-04-25T04:43:37.793Z,0.51
2023-04-25T04:44:37.782Z,0.53
2023-04-25T04:45:37.773Z,0.53
2023-04-25T04:46:37.786Z,0.56
2023-04-25T04:47:37.878Z,0.74
2023-04-25T04:48:37.737Z,0.56
2023-04-25T04:49:37.727Z,0.62
2023-04-25T04:50:37.713Z,0.52
2023-04-25T04:51:37.730Z,0.57
2023-04-25T04:52:37.713Z,0.60
2023-04-25T04:53:37.677Z,0.67
2023-04-25T04:54:37.679Z,0.60
2023-04-25T04:55:37.654Z,0.53
2023-04-25T04:56:37.670Z,0.33
2023-04-25T04:57:37.633Z,0.53
2023-04-25T04:58:37.664Z,0.62
2023-04-25T04:59:37.632Z,0.40
2023-04-25T05:00:37.682Z,0.51
2023-04-25T05:01:37.629Z,0.63
2023-04-25T05:02:37.749Z,0.57
2023-04-25T05:03:37.794Z,0.71
2023-04-25T05:04:37.782Z,0.62
2023-04-25T05:05:37.555Z,0.57
2023-04-25T05:06:37.544Z,0.72
2023-04-25T05:07:37.537Z,0.67
2023-04-25T05:08:37.553Z,0.70
2023-04-25T05:09:37.541Z,0.80
2023-04-25T05:10:37.500Z,0.99
2023-04-25T05:11:37.493Z,1.25
2023-04-25T05:12:37.502Z,1.47
2023-04-25T05:13:37.468Z,2.00
2023-04-25T05:14:37.472Z,2.33
2023-04-25T05:15:37.447Z,2.74
2023-04-25T05:16:37.494Z,2.83
2023-04-25T05:17:37.448Z,3.01
2023-04-25T05:18:37.412Z,3.28
2023-04-25T05:19:37.398Z,3.56
2023-04-25T05:20:37.406Z,3.90
2023-04-25T05:21:37.380Z,3.88
2023-04-25T05:22:37.395Z,3.81
2023-04-25T05:23:37.364Z,3.92
2023-04-25T05:24:37.353Z,4.35
2023-04-25T05:25:37.341Z,4.38
2023-04-25T05:26:37.336Z,4.16
2023-04-25T05:27:37.318Z,4.08
2023-04-25T05:28:37.340Z,3.89
2023-04-25T05:29:37.298Z,4.02
2023-04-25T05:30:37.286Z,4.06
2023-04-25T05:31:37.338Z,4.25
2023-04-25T05:32:37.326Z,4.43
2023-04-25T05:33:37.270Z,4.71
2023-04-25T05:34:37.238Z,4.75
2023-04-25T05:35:37.234Z,4.75
2023-04-25T05:36:37.216Z,4.44
2023-04-25T05:37:37.224Z,4.46
2023-04-25T05:38:37.223Z,4.20
2023-04-25T05:39:37.192Z,4.34
2023-04-25T05:40:37.173Z,4.31
2023-04-25T05:41:37.165Z,4.25
2023-04-25T05:42:37.148Z,4.38
2023-04-25T05:43:37.142Z,4.35
2023-04-25T05:44:37.199Z,4.21
2023-04-25T05:45:37.153Z,4.32
2023-04-25T05:46:37.187Z,4.56
2023-04-25T05:47:37.142Z,4.43
2023-04-25T05:48:37.083Z,4.57
2023-04-25T05:49:37.080Z,5.05
2023-04-25T05:50:37.084Z,5.17
2023-04-25T05:51:37.051Z,5.44
2023-04-25T05:52:37.044Z,5.35
2023-04-25T05:53:37.037Z,5.42
2023-04-25T05:54:37.021Z,5.29
2023-04-25T05:55:37.044Z,5.24
2023-04-25T05:56:37.017Z,5.15
2023-04-25T05:57:36.990Z,4.86
2023-04-25T05:58:36.975Z,4.62
2023-04-25T05:59:36.985Z,4.79
2023-04-25T06:00:37.079Z,5.11
2023-04-25T06:01:36.941Z,5.08
2023-04-25T06:02:37.078Z,5.27
2023-04-25T06:03:37.162Z,5.51
2023-04-25T06:04:37.202Z,5.90
2023-04-25T06:05:37.080Z,5.90
2023-04-25T06:06:36.884Z,5.98
2023-04-25T06:07:36.882Z,6.02
2023-04-25T06:08:36.870Z,5.90
2023-04-25T06:09:36.857Z,5.77
2023-04-25T06:10:36.841Z,5.84
2023-04-25T06:11:36.842Z,5.58
2023-04-25T06:12:36.827Z,5.66
2023-04-25T06:13:36.815Z,5.48
2023-04-25T06:14:36.807Z,5.60
2023-04-25T06:15:36.831Z,5.47
2023-04-25T06:16:36.890Z,5.58
2023-04-25T06:17:36.783Z,5.83
2023-04-25T06:18:36.765Z,5.99
2023-04-25T06:19:36.749Z,5.85
2023-04-25T06:20:36.742Z,6.13
2023-04-25T06:21:36.735Z,5.98
2023-04-25T06:22:36.715Z,5.56
2023-04-25T06:23:36.702Z,5.12
2023-04-25T06:24:36.692Z,4.71
2023-04-25T06:25:36.687Z,4.35
2023-04-25T06:26:36.724Z,3.99
2023-04-25T06:27:36.678Z,3.84
2023-04-25T06:28:36.650Z,3.72
2023-04-25T06:29:36.639Z,3.56
2023-04-25T06:30:36.625Z,3.63
2023-04-25T06:31:36.668Z,3.44
2023-04-25T06:32:36.724Z,3.37
2023-04-25T06:33:36.598Z,3.41
2023-04-25T06:34:36.597Z,3.49
2023-04-25T06:35:36.587Z,3.64
2023-04-25T06:36:36.571Z,3.71
2023-04-25T06:37:36.577Z,3.96
2023-04-25T06:38:36.561Z,4.11
2023-04-25T06:39:37.218Z,4.13
2023-04-25T06:40:36.531Z,4.16
2023-04-25T06:41:36.508Z,3.52
2023-04-25T06:42:36.501Z,4.24
2023-04-25T06:43:36.492Z,4.68
2023-04-25T06:44:36.487Z,4.88
2023-04-25T06:45:36.484Z,5.37
2023-04-25T06:46:36.495Z,5.45
2023-04-25T06:47:36.486Z,5.67
2023-04-25T06:48:36.465Z,5.51
2023-04-25T06:49:36.428Z,5.85
2023-04-25T06:50:36.416Z,5.98
2023-04-25T06:51:36.401Z,5.95
2023-04-25T06:52:36.400Z,5.85
2023-04-25T06:53:36.407Z,5.95
2023-04-25T06:54:36.370Z,5.80
2023-04-25T06:55:36.369Z,5.90
2023-04-25T06:56:36.360Z,6.11
2023-04-25T06:57:36.351Z,6.60
2023-04-25T06:58:36.345Z,6.38
2023-04-25T06:59:36.318Z,5.93
2023-04-25T07:00:36.350Z,5.93
2023-04-25T07:01:36.316Z,5.87
2023-04-25T07:02:36.397Z,5.98
2023-04-25T07:03:36.559Z,5.95
2023-04-25T07:04:36.503Z,6.32
2023-04-25T07:05:36.249Z,6.25
2023-04-25T07:06:36.261Z,6.35
2023-04-25T07:07:36.234Z,6.68
2023-04-25T07:08:36.231Z,6.61
2023-04-25T07:09:36.210Z,5.95
2023-04-25T07:10:36.209Z,5.14
2023-04-25T07:11:36.205Z,4.80
2023-04-25T07:12:36.181Z,4.87
2023-04-25T07:13:36.181Z,4.97
2023-04-25T07:14:36.158Z,5.11
2023-04-25T07:15:36.166Z,5.11
2023-04-25T07:16:36.197Z,5.70
2023-04-25T07:17:36.182Z,6.33
2023-04-25T07:18:36.109Z,6.14
2023-04-25T07:19:36.109Z,6.03
2023-04-25T07:20:36.130Z,5.93
2023-04-25T07:21:36.083Z,6.35
2023-04-25T07:22:36.082Z,6.50
2023-04-25T07:23:36.039Z,6.87
2023-04-25T07:24:36.048Z,6.73
2023-04-25T07:25:36.018Z,6.83
2023-04-25T07:26:36.032Z,6.96
2023-04-25T07:27:35.997Z,7.07
2023-04-25T07:28:35.996Z,7.12
2023-04-25T07:29:35.973Z,6.86
2023-04-25T07:30:35.982Z,6.73
2023-04-25T07:31:35.996Z,7.01
2023-04-25T07:32:36.056Z,7.01
2023-04-25T07:33:35.942Z,7.48
2023-04-25T07:34:35.925Z,7.15
2023-04-25T07:35:35.930Z,6.50
2023-04-25T07:36:35.928Z,5.84
2023-04-25T07:37:35.892Z,5.66
2023-04-25T07:38:35.906Z,5.69
2023-04-25T07:39:35.865Z,5.84
2023-04-25T07:40:35.857Z,5.65
2023-04-25T07:41:35.880Z,5.58
2023-04-25T07:42:35.887Z,5.56
2023-04-25T07:43:35.822Z,5.52
2023-04-25T07:44:35.838Z,5.30
2023-04-25T07:45:35.897Z,5.37
2023-04-25T07:46:35.848Z,5.38
2023-04-25T07:47:35.893Z,5.20
2023-04-25T07:48:35.804Z,5.20
2023-04-25T07:49:35.800Z,5.15
2023-04-25T07:50:35.777Z,5.09
2023-04-25T07:51:35.779Z,5.27
2023-04-25T07:52:35.788Z,5.41
2023-04-25T07:53:35.757Z,5.60
2023-04-25T07:54:35.732Z,5.35
2023-04-25T07:55:35.717Z,5.35
2023-04-25T07:56:49.079Z,5.29
2023-04-25T07:57:36.697Z,5.48
2023-04-25T07:58:35.683Z,5.83
2023-04-25T07:59:35.680Z,5.35
2023-04-25T08:00:35.671Z,5.37
2023-04-25T08:01:35.661Z,5.51
2023-04-25T08:02:35.758Z,5.45
2023-04-25T08:03:35.813Z,5.52
2023-04-25T08:04:35.808Z,6.17
2023-04-25T08:05:35.753Z,6.71
2023-04-25T08:06:35.912Z,7.08
2023-04-25T08:07:35.588Z,7.37
2023-04-25T08:08:35.636Z,7.48
2023-04-25T08:09:35.571Z,7.27
2023-04-25T08:10:35.572Z,7.09
2023-04-25T08:11:35.542Z,7.39
2023-04-25T08:12:35.533Z,7.41
2023-04-25T08:13:35.522Z,6.96
2023-04-25T08:14:35.529Z,6.99
2023-04-25T08:15:35.528Z,7.09
2023-04-25T08:16:35.487Z,7.01
2023-04-25T08:17:35.493Z,6.69
2023-04-25T08:18:35.471Z,6.27
2023-04-25T08:19:35.476Z,6.25
2023-04-25T08:20:35.447Z,6.24
2023-04-25T08:21:35.447Z,5.96
2023-04-25T08:22:35.436Z,5.95
2023-04-25T08:23:35.439Z,6.06
2023-04-25T08:24:37.134Z,5.92
2023-04-25T08:25:35.393Z,5.99
2023-04-25T08:26:35.402Z,5.85
2023-04-25T08:27:35.372Z,5.93
2023-04-25T08:28:35.376Z,5.95
2023-04-25T08:29:35.360Z,5.92
2023-04-25T08:30:35.357Z,6.45
2023-04-25T08:31:35.413Z,6.82
2023-04-25T08:32:35.467Z,6.76
2023-04-25T08:33:35.361Z,6.78
2023-04-25T08:34:35.319Z,6.73
2023-04-25T08:35:35.319Z,6.54
2023-04-25T08:36:39.866Z,6.55
2023-04-25T08:37:36.271Z,6.73
2023-04-25T08:38:35.268Z,6.60
2023-04-25T08:39:35.277Z,6.36
2023-04-25T08:40:35.258Z,6.40
2023-04-25T08:41:35.229Z,6.65
2023-04-25T08:42:35.209Z,6.71
2023-04-25T08:43:35.238Z,6.60
2023-04-25T08:44:35.206Z,6.71
2023-04-25T08:45:35.189Z,6.72
2023-04-25T08:46:35.217Z,6.73
2023-04-25T08:47:35.175Z,6.65
2023-04-25T08:48:35.148Z,6.91
2023-04-25T08:49:35.144Z,7.12
2023-04-25T08:50:35.135Z,7.29
2023-04-25T08:51:35.118Z,7.08
2023-04-25T08:52:35.096Z,6.93
2023-04-25T08:53:36.262Z,6.75
2023-04-25T08:54:36.530Z,6.81
2023-04-25T08:55:35.066Z,7.12
2023-04-25T08:56:35.091Z,7.51
2023-04-25T08:57:35.047Z,7.66
2023-04-25T08:58:35.032Z,7.27
2023-04-25T08:59:36.562Z,7.12
2023-04-25T09:00:35.014Z,6.82
2023-04-25T09:01:35.097Z,6.73
2023-04-25T09:02:35.111Z,6.60
2023-04-25T09:03:35.068Z,6.65
2023-04-25T09:04:34.970Z,6.60
2023-04-25T09:05:34.960Z,7.04
2023-04-25T09:06:35.001Z,7.37
2023-04-25T09:07:34.931Z,7.50
2023-04-25T09:08:34.937Z,7.50
2023-04-25T09:09:34.919Z,7.37
2023-04-25T09:10:34.908Z,7.45
2023-04-25T09:11:34.892Z,7.41
2023-04-25T09:12:34.996Z,7.12
2023-04-25T09:13:34.879Z,7.04
2023-04-25T09:14:34.872Z,6.83
2023-04-25T09:15:34.845Z,6.76
2023-04-25T09:16:37.087Z,6.79
2023-04-25T09:17:34.908Z,6.64
2023-04-25T09:18:34.826Z,6.60
2023-04-25T09:19:39.709Z,6.33
2023-04-25T09:20:40.344Z,6.25
2023-04-25T09:21:35.787Z,6.03
2023-04-25T09:22:34.768Z,5.95
2023-04-25T09:23:34.759Z,5.88
2023-04-25T09:24:34.763Z,5.85
2023-04-25T09:25:34.750Z,5.58
2023-04-25T09:26:34.734Z,5.49
2023-04-25T09:27:34.711Z,5.44
2023-04-25T09:28:34.934Z,5.05
2023-04-25T09:29:34.700Z,5.19
2023-04-25T09:30:34.693Z,5.06
2023-04-25T09:31:34.706Z,5.04
2023-04-25T09:32:34.869Z,5.04
2023-04-25T09:33:34.652Z,4.88
2023-04-25T09:34:34.649Z,4.94
2023-04-25T09:35:34.632Z,4.84
2023-04-25T09:36:34.786Z,4.74
2023-04-25T09:37:34.615Z,4.67
2023-04-25T09:38:34.606Z,4.72
2023-04-25T09:39:34.590Z,4.47
2023-04-25T09:40:34.586Z,4.51
2023-04-25T09:41:34.561Z,4.43
2023-04-25T09:42:34.553Z,4.39
2023-04-25T09:43:34.575Z,4.25
2023-04-25T09:44:34.585Z,4.08
2023-04-25T09:45:34.537Z,3.99
2023-04-25T09:46:34.631Z,3.98
2023-04-25T09:47:34.515Z,3.93
2023-04-25T09:48:34.492Z,3.89
2023-04-25T09:49:34.482Z,3.95
2023-04-25T09:50:34.473Z,3.90
2023-04-25T09:51:34.474Z,3.93
2023-04-25T09:52:34.445Z,4.07
2023-04-25T09:53:34.442Z,4.24
2023-04-25T09:54:34.432Z,4.29
2023-04-25T09:55:34.429Z,4.35
2023-04-25T09:56:34.451Z,4.68
2023-04-25T09:57:34.402Z,4.53
2023-04-25T09:58:34.402Z,4.31
2023-04-25T09:59:34.396Z,4.44
2023-04-25T10:00:34.400Z,4.28
2023-04-25T10:01:34.412Z,4.08
2023-04-25T10:02:34.382Z,4.31
2023-04-25T10:03:34.534Z,4.47
2023-04-25T10:04:34.386Z,4.61
2023-04-25T10:05:34.315Z,4.53
2023-04-25T10:06:34.302Z,4.39
2023-04-25T10:07:34.315Z,4.32
2023-04-25T10:08:34.279Z,4.34
2023-04-25T10:09:34.258Z,4.36
2023-04-25T10:10:34.253Z,4.31
2023-04-25T10:11:34.240Z,4.21
2023-04-25T10:12:34.313Z,4.28
2023-04-25T10:13:34.242Z,4.44
2023-04-25T10:14:34.212Z,4.49
2023-04-25T10:15:34.246Z,4.16
2023-04-25T10:16:34.295Z,4.02
2023-04-25T10:17:34.239Z,4.02
2023-04-25T10:18:34.182Z,4.17
2023-04-25T10:19:34.155Z,3.99
2023-04-25T10:20:34.153Z,4.04
2023-04-25T10:21:34.148Z,4.06
2023-04-25T10:22:34.131Z,3.86
2023-04-25T10:23:34.121Z,3.64
2023-04-25T10:24:34.113Z,3.81
2023-04-25T10:25:34.094Z,3.95
2023-04-25T10:26:34.090Z,3.84
2023-04-25T10:27:34.090Z,3.84
2023-04-25T10:28:34.070Z,3.88
2023-04-25T10:29:34.079Z,3.96
2023-04-25T10:30:34.051Z,3.95
2023-04-25T10:31:34.110Z,4.16
2023-04-25T10:32:34.048Z,4.18
2023-04-25T10:33:34.028Z,4.20
2023-04-25T10:34:33.997Z,4.11
2023-04-25T10:35:33.976Z,3.92
2023-04-25T10:36:33.995Z,3.89
2023-04-25T10:37:33.961Z,3.98
2023-04-25T10:38:33.967Z,4.02
2023-04-25T10:39:33.963Z,3.90
2023-04-25T10:40:33.960Z,3.99
2023-04-25T10:41:33.918Z,4.02
2023-04-25T10:42:33.911Z,3.99
2023-04-25T10:43:33.908Z,3.84
2023-04-25T10:44:33.901Z,3.78
2023-04-25T10:45:33.895Z,3.64
2023-04-25T10:46:33.896Z,3.53
2023-04-25T10:47:33.915Z,3.35
2023-04-25T10:48:33.864Z,3.33
2023-04-25T10:49:33.848Z,3.25
2023-04-25T10:50:33.825Z,3.35
2023-04-25T10:51:50.894Z,3.33
2023-04-25T10:52:34.811Z,3.37
2023-04-25T10:53:33.790Z,3.52
2023-04-25T10:54:33.781Z,3.59
2023-04-25T10:55:33.773Z,3.84
2023-04-25T10:56:33.759Z,3.82
2023-04-25T10:57:33.752Z,4.06
2023-04-25T10:58:33.737Z,4.02
2023-04-25T10:59:33.733Z,4.08
2023-04-25T11:00:38.500Z,4.39
2023-04-25T11:01:34.715Z,4.74
2023-04-25T11:02:33.804Z,4.61
2023-04-25T11:03:33.864Z,4.88
2023-04-25T11:04:33.879Z,4.91
2023-04-25T11:05:36.260Z,5.08
2023-04-25T11:06:34.662Z,5.22
2023-04-25T11:07:33.656Z,5.22
2023-04-25T11:08:33.630Z,5.60
2023-04-25T11:09:33.621Z,5.80
2023-04-25T11:10:33.604Z,5.52
2023-04-25T11:11:33.613Z,5.55
2023-04-25T11:12:33.581Z,5.51
2023-04-25T11:13:33.572Z,5.55
2023-04-25T11:14:33.562Z,5.59
2023-04-25T11:15:33.580Z,6.01
2023-04-25T11:16:33.572Z,6.10
2023-04-25T11:17:33.652Z,5.84
2023-04-25T11:18:33.513Z,5.90
2023-04-25T11:19:33.531Z,5.88
2023-04-25T11:20:33.531Z,5.87
2023-04-25T11:21:33.501Z,5.81
2023-04-25T11:22:33.484Z,5.78
2023-04-25T11:23:33.467Z,5.75
2023-04-25T11:24:33.458Z,6.03
2023-04-25T11:25:34.431Z,5.92
2023-04-25T11:26:33.462Z,5.75
2023-04-25T11:27:33.438Z,5.78
2023-04-25T11:28:33.420Z,5.80
2023-04-25T11:29:33.405Z,5.59
2023-04-25T11:30:33.388Z,5.66
2023-04-25T11:31:33.398Z,5.51
2023-04-25T11:32:33.597Z,5.62
2023-04-25T11:33:33.458Z,5.74
2023-04-25T11:34:33.357Z,5.55
2023-04-25T11:35:33.336Z,5.49
2023-04-25T11:36:33.528Z,5.69
2023-04-25T11:37:33.310Z,5.51
2023-04-25T11:38:33.299Z,5.37
2023-04-25T11:39:33.319Z,5.42
2023-04-25T11:40:33.280Z,5.27
2023-04-25T11:41:33.272Z,5.48
2023-04-25T11:42:33.268Z,5.41
2023-04-25T11:43:33.322Z,5.44
2023-04-25T11:44:33.242Z,5.42
2023-04-25T11:45:33.337Z,5.35
2023-04-25T11:46:33.357Z,5.48
2023-04-25T11:47:33.340Z,5.42
2023-04-25T11:48:33.197Z,5.55
2023-04-25T11:49:33.194Z,5.59
2023-04-25T11:50:33.179Z,5.42
2023-04-25T11:51:33.180Z,5.56
2023-04-25T11:52:33.179Z,5.52
2023-04-25T11:53:33.140Z,5.41
2023-04-25T11:54:33.133Z,5.37
2023-04-25T11:55:33.137Z,5.41
2023-04-25T11:56:33.105Z,5.52
2023-04-25T11:57:33.112Z,5.49
2023-04-25T11:58:33.087Z,5.62
2023-04-25T11:59:33.082Z,5.58
2023-04-25T12:00:33.067Z,5.59
2023-04-25T12:01:35.012Z,5.69
2023-04-25T12:02:33.196Z,5.59
2023-04-25T12:03:33.250Z,5.65
2023-04-25T12:04:33.338Z,5.60
2023-04-25T12:05:34.121Z,5.87
2023-04-25T12:06:33.017Z,5.75
2023-04-25T12:07:33.003Z,5.70
2023-04-25T12:08:33.022Z,5.73
2023-04-25T12:09:32.976Z,5.96
2023-04-25T12:10:32.984Z,6.02
2023-04-25T12:11:32.965Z,6.10
2023-04-25T12:12:32.944Z,6.06
2023-04-25T12:13:32.931Z,6.02
2023-04-25T12:14:32.926Z,6.02
2023-04-25T12:15:32.914Z,5.92
2023-04-25T12:16:32.920Z,5.78
2023-04-25T12:17:32.923Z,5.78
2023-04-25T12:18:32.874Z,5.99
2023-04-25T12:19:32.858Z,5.67
2023-04-25T12:20:32.848Z,5.59
2023-04-25T12:21:33.394Z,5.70
2023-04-25T12:22:32.850Z,5.52
2023-04-25T12:23:32.819Z,5.73
2023-04-25T12:24:32.877Z,5.62
2023-04-25T12:25:32.797Z,5.51
2023-04-25T12:26:32.806Z,5.55
2023-04-25T12:27:32.788Z,5.65
2023-04-25T12:28:32.772Z,5.63
2023-04-25T12:29:41.791Z,5.62
2023-04-25T12:30:33.737Z,5.45
2023-04-25T12:31:32.770Z,5.38
2023-04-25T12:32:32.750Z,5.35
2023-04-25T12:33:32.735Z,5.48
2023-04-25T12:34:32.698Z,5.42
2023-04-25T12:35:32.689Z,5.40
2023-04-25T12:36:32.674Z,5.42
2023-04-25T12:37:32.672Z,5.48
2023-04-25T12:38:32.672Z,5.40
2023-04-25T12:39:32.666Z,5.35
2023-04-25T12:40:32.665Z,5.37
2023-04-25T12:41:32.623Z,5.60
2023-04-25T12:42:32.618Z,5.59
2023-04-25T12:43:32.634Z,5.45
2023-04-25T12:44:32.596Z,5.37
2023-04-25T12:45:32.583Z,5.30
2023-04-25T12:46:32.588Z,5.27
2023-04-25T12:47:32.585Z,5.23
2023-04-25T12:48:32.564Z,5.17
2023-04-25T12:49:32.548Z,5.33
2023-04-25T12:50:32.529Z,5.29
2023-04-25T12:51:32.527Z,5.44
2023-04-25T12:52:32.509Z,5.59
2023-04-25T12:53:33.911Z,5.58
2023-04-25T12:54:32.482Z,5.81
2023-04-25T12:55:32.473Z,5.84
2023-04-25T12:56:32.497Z,5.99
2023-04-25T12:57:32.464Z,6.11
2023-04-25T12:58:32.451Z,6.16
2023-04-25T12:59:32.437Z,6.01
2023-04-25T13:00:32.469Z,6.08
2023-04-25T13:01:34.646Z,6.01
2023-04-25T13:02:32.598Z,5.90
2023-04-25T13:03:32.557Z,6.01
2023-04-25T13:04:32.540Z,5.93
2023-04-25T13:05:32.379Z,5.66
2023-04-25T13:06:32.362Z,5.74
2023-04-25T13:07:34.070Z,5.95
2023-04-25T13:08:32.335Z,5.95
2023-04-25T13:09:32.329Z,5.62
2023-04-25T13:10:32.332Z,5.62
2023-04-25T13:11:32.486Z,5.63
2023-04-25T13:12:32.315Z,5.55
2023-04-25T13:13:32.299Z,5.52
2023-04-25T13:14:32.266Z,5.55
2023-04-25T13:15:32.262Z,5.47
2023-04-25T13:16:32.294Z,5.59
2023-04-25T13:17:32.264Z,5.51
2023-04-25T13:18:32.220Z,5.59